createdAt,value
2023-02-22T00:01:22.048Z,82.75
2023-02-22T00:03:50.965Z,85.28
2023-02-22T00:06:19.358Z,83.93
2023-02-22T00:08:48.703Z,84.65
2023-02-22T00:11:16.186Z,90.00
2023-02-22T00:13:45.121Z,93.05
2023-02-22T00:16:16.350Z,96.63
2023-02-22T00:18:44.375Z,97.63
2023-02-22T00:21:12.781Z,100.85
2023-02-22T00:23:41.094Z,107.57
2023-02-22T00:26:09.978Z,113.20
2023-02-22T00:28:37.679Z,119.07
2023-02-22T00:31:06.761Z,121.78
2023-02-22T00:33:33.665Z,121.47
2023-02-22T00:36:00.450Z,125.03
2023-02-22T00:38:27.199Z,125.18
2023-02-22T00:40:55.720Z,130.27
2023-02-22T00:43:25.107Z,130.10
2023-02-22T00:45:52.117Z,123.85
2023-02-22T00:48:19.695Z,128.27
2023-02-22T00:50:48.628Z,129.35
2023-02-22T00:53:16.125Z,130.88
2023-02-22T00:55:43.384Z,131.55
2023-02-22T00:58:10.864Z,134.25
2023-02-22T01:00:39.559Z,133.38
2023-02-22T01:03:08.339Z,139.35
2023-02-22T01:05:35.715Z,137.57
2023-02-22T01:08:06.563Z,136.32
2023-02-22T01:10:34.571Z,138.48
2023-02-22T01:13:08.486Z,139.23
2023-02-22T01:15:36.658Z,137.15
2023-02-22T01:18:05.125Z,136.57
2023-02-22T01:20:32.103Z,138.13
2023-02-22T01:23:00.754Z,137.70
2023-02-22T01:25:29.917Z,141.05
2023-02-22T01:27:57.310Z,142.35
2023-02-22T01:30:26.429Z,142.52
2023-02-22T01:32:53.423Z,136.65
2023-02-22T01:35:21.945Z,132.70
2023-02-22T01:37:49.268Z,137.43
2023-02-22T01:40:22.672Z,136.82
2023-02-22T01:42:53.184Z,137.10
2023-02-22T01:45:38.768Z,138.82
2023-02-22T01:48:11.476Z,140.65
2023-02-22T01:50:47.120Z,135.45
2023-02-22T01:53:16.856Z,137.68
2023-02-22T01:55:44.761Z,137.25
2023-02-22T01:58:13.101Z,136.02
2023-02-22T02:00:40.617Z,138.52
2023-02-22T02:03:11.202Z,142.27
2023-02-22T02:05:39.176Z,145.13
2023-02-22T02:08:14.561Z,141.20
2023-02-22T02:10:42.861Z,141.15
2023-02-22T02:13:10.186Z,139.45
2023-02-22T02:15:37.129Z,139.13
2023-02-22T02:18:06.103Z,140.88
2023-02-22T02:20:38.640Z,137.95
2023-02-22T02:23:10.424Z,136.82
2023-02-22T02:25:55.879Z,135.77
2023-02-22T02:28:34.558Z,138.75
2023-02-22T02:31:20.155Z,138.13
2023-02-22T02:33:50.146Z,134.57
2023-02-22T02:36:25.780Z,136.35
2023-02-22T02:38:56.761Z,137.38
2023-02-22T02:41:45.411Z,140.68
2023-02-22T02:44:16.981Z,139.00
2023-02-22T02:46:50.001Z,142.00
2023-02-22T02:49:19.674Z,135.13
2023-02-22T02:51:49.766Z,138.15
2023-02-22T02:54:17.273Z,135.40
2023-02-22T02:56:45.796Z,135.45
2023-02-22T02:59:25.711Z,135.82
2023-02-22T03:01:55.814Z,134.68
2023-02-22T03:04:42.665Z,136.30
2023-02-22T03:07:25.650Z,135.77
2023-02-22T03:10:08.823Z,135.98
2023-02-22T03:12:35.791Z,130.98
2023-02-22T03:15:05.880Z,130.30
2023-02-22T03:17:54.285Z,128.10
2023-02-22T03:20:31.963Z,132.23
2023-02-22T03:23:04.663Z,133.25
2023-02-22T03:25:34.419Z,135.63
2023-02-22T03:28:04.754Z,138.30
2023-02-22T03:30:39.575Z,138.75
2023-02-22T03:33:20.539Z,135.05
2023-02-22T03:35:56.938Z,135.18
2023-02-22T03:38:26.992Z,134.35
2023-02-22T03:40:59.338Z,136.23
2023-02-22T03:43:29.103Z,135.90
2023-02-22T03:45:59.951Z,136.98
2023-02-22T03:48:37.602Z,137.93
2023-02-22T03:51:06.517Z,137.10
2023-02-22T03:53:34.530Z,135.18
2023-02-22T03:56:03.068Z,135.95
2023-02-22T03:58:31.645Z,136.27
2023-02-22T04:00:58.645Z,136.35
2023-02-22T04:03:25.753Z,136.13
2023-02-22T04:05:53.404Z,140.07
2023-02-22T04:08:21.475Z,143.60
2023-02-22T04:10:48.442Z,144.73
2023-02-22T04:13:17.653Z,141.30
2023-02-22T04:15:47.589Z,139.60
2023-02-22T04:18:14.421Z,139.25
2023-02-22T04:20:41.666Z,141.73
2023-02-22T04:23:18.961Z,136.68
2023-02-22T04:25:46.602Z,135.65
2023-02-22T04:28:16.379Z,137.10
2023-02-22T04:31:01.455Z,132.50
2023-02-22T04:33:29.200Z,140.25
2023-02-22T04:35:57.883Z,135.65
2023-02-22T04:38:27.935Z,135.38
2023-02-22T04:40:57.548Z,133.32
2023-02-22T04:43:25.716Z,130.43
2023-02-22T04:45:57.516Z,134.98
2023-02-22T04:48:24.997Z,131.20
2023-02-22T04:50:52.287Z,135.88
2023-02-22T04:53:19.578Z,137.25
2023-02-22T04:55:47.056Z,131.48
2023-02-22T04:58:14.000Z,131.80
2023-02-22T05:00:41.266Z,136.68
2023-02-22T05:03:09.020Z,133.82
2023-02-22T05:05:35.938Z,133.20
2023-02-22T05:08:03.906Z,137.27
2023-02-22T05:10:31.060Z,136.88
2023-02-22T05:12:57.802Z,135.25
2023-02-22T05:15:25.443Z,140.80
2023-02-22T05:17:52.736Z,138.40
2023-02-22T05:20:24.106Z,134.82
2023-02-22T05:22:52.034Z,131.60
2023-02-22T05:25:20.390Z,138.13
2023-02-22T05:27:57.458Z,135.00
2023-02-22T05:30:28.526Z,130.02
2023-02-22T05:32:55.633Z,129.10
2023-02-22T05:35:23.039Z,126.75
2023-02-22T05:37:50.860Z,129.10
2023-02-22T05:40:18.916Z,131.18
2023-02-22T05:42:48.889Z,130.10
2023-02-22T05:45:16.504Z,130.95
2023-02-22T05:47:43.581Z,124.07
2023-02-22T05:50:11.063Z,126.00
2023-02-22T05:52:40.998Z,134.27
2023-02-22T05:55:09.469Z,126.65
2023-02-22T05:57:37.178Z,126.85
2023-02-22T06:00:07.057Z,130.57
2023-02-22T06:02:39.896Z,128.60
2023-02-22T06:05:08.592Z,129.98
2023-02-22T06:07:35.503Z,127.38
2023-02-22T06:10:02.483Z,127.25
2023-02-22T06:12:29.709Z,126.45
2023-02-22T06:14:56.841Z,129.25
2023-02-22T06:17:23.911Z,127.85
2023-02-22T06:19:50.910Z,121.72
2023-02-22T06:22:18.738Z,123.72
2023-02-22T06:24:45.855Z,126.93
2023-02-22T06:27:13.066Z,127.00
2023-02-22T06:29:40.130Z,123.13
2023-02-22T06:32:07.207Z,126.22
2023-02-22T06:34:34.462Z,126.75
2023-02-22T06:37:01.312Z,131.75
2023-02-22T06:39:28.839Z,130.35
2023-02-22T06:41:57.849Z,126.20
2023-02-22T06:44:24.878Z,124.03
2023-02-22T06:46:52.128Z,128.27
2023-02-22T06:49:19.749Z,129.35
2023-02-22T06:51:47.333Z,124.20
2023-02-22T06:54:15.092Z,123.43
2023-02-22T06:56:42.114Z,126.45
2023-02-22T06:59:09.172Z,124.05
2023-02-22T07:01:36.980Z,126.68
2023-02-22T07:04:03.782Z,124.05
2023-02-22T07:06:30.754Z,126.10
2023-02-22T07:08:57.732Z,127.97
2023-02-22T07:11:24.570Z,122.20
2023-02-22T07:13:51.464Z,123.85
2023-02-22T07:16:21.555Z,127.60
2023-02-22T07:18:48.526Z,124.55
2023-02-22T07:21:15.882Z,126.80
2023-02-22T07:23:43.050Z,128.93
2023-02-22T07:26:09.937Z,131.77
2023-02-22T07:28:36.792Z,133.48
2023-02-22T07:31:04.993Z,131.85
2023-02-22T07:33:32.174Z,131.85
2023-02-22T07:35:59.214Z,133.95
2023-02-22T07:38:25.997Z,137.15
2023-02-22T07:40:52.991Z,130.57
2023-02-22T07:43:24.221Z,131.18
2023-02-22T07:45:54.131Z,130.70
2023-02-22T07:48:22.415Z,133.60
2023-02-22T07:50:49.734Z,133.57
2023-02-22T07:53:19.109Z,133.80
2023-02-22T07:55:47.774Z,133.60
2023-02-22T07:58:18.584Z,137.65
2023-02-22T08:03:26.434Z,125.63
2023-02-22T08:06:03.021Z,129.73
2023-02-22T08:08:37.700Z,133.50
2023-02-22T08:11:04.793Z,129.50
2023-02-22T08:13:31.806Z,132.25
2023-02-22T08:15:58.718Z,129.38
2023-02-22T08:18:25.621Z,133.85
2023-02-22T08:20:52.766Z,132.93
2023-02-22T08:23:20.370Z,133.25
2023-02-22T08:25:47.134Z,130.23
2023-02-22T08:28:17.833Z,131.40
2023-02-22T08:30:44.771Z,132.18
2023-02-22T08:33:15.267Z,130.20
2023-02-22T08:35:42.737Z,131.45
2023-02-22T08:38:16.166Z,130.13
2023-02-22T08:40:44.711Z,129.75
2023-02-22T08:43:13.417Z,130.32
2023-02-22T08:45:40.519Z,131.10
2023-02-22T08:48:07.669Z,128.73
2023-02-22T08:50:34.590Z,131.57
2023-02-22T08:53:02.749Z,129.43
2023-02-22T08:55:32.453Z,133.18
2023-02-22T08:58:01.668Z,132.43
2023-02-22T09:00:30.832Z,130.07
2023-02-22T09:02:57.597Z,133.20
2023-02-22T09:05:24.519Z,138.70
2023-02-22T09:07:51.370Z,133.43
2023-02-22T09:10:19.616Z,132.88
2023-02-22T09:12:46.387Z,129.40
2023-02-22T09:15:13.144Z,132.70
2023-02-22T09:17:39.942Z,127.07
2023-02-22T09:20:07.819Z,130.07
2023-02-22T09:22:34.698Z,128.15
2023-02-22T09:25:11.395Z,127.28
2023-02-22T09:27:45.415Z,128.35
2023-02-22T09:30:28.195Z,131.43
2023-02-22T09:32:56.372Z,126.50
2023-02-22T09:35:36.490Z,127.82
2023-02-22T09:38:04.326Z,129.60
2023-02-22T09:40:32.472Z,125.90
2023-02-22T09:43:11.623Z,127.68
2023-02-22T09:45:45.007Z,125.43
2023-02-22T09:48:22.019Z,128.27
2023-02-22T09:50:51.360Z,126.97
2023-02-22T09:53:36.591Z,125.65
2023-02-22T09:56:11.162Z,127.93
2023-02-22T09:58:44.011Z,128.05
2023-02-22T10:01:26.030Z,127.85
2023-02-22T10:04:05.837Z,130.05
2023-02-22T10:06:33.810Z,127.20
2023-02-22T10:09:07.621Z,127.05
2023-02-22T10:14:14.706Z,127.75
2023-02-22T10:16:59.994Z,129.50
2023-02-22T10:19:27.859Z,136.02
2023-02-22T10:22:15.335Z,132.73
2023-02-22T10:24:45.972Z,132.13
2023-02-22T10:27:18.158Z,135.43
2023-02-22T10:29:48.561Z,135.07
2023-02-22T10:32:19.126Z,134.75
2023-02-22T10:34:51.546Z,135.02
2023-02-22T10:37:26.307Z,137.40
2023-02-22T10:39:55.817Z,131.68
2023-02-22T10:42:25.479Z,130.77
2023-02-22T10:44:52.431Z,130.40
2023-02-22T10:47:21.922Z,131.02
2023-02-22T10:49:53.647Z,132.60
2023-02-22T10:52:26.204Z,133.43
2023-02-22T10:55:01.008Z,131.88
2023-02-22T10:57:35.834Z,131.75
2023-02-22T11:00:20.016Z,132.82
2023-02-22T11:02:57.537Z,129.93
2023-02-22T11:05:32.511Z,134.55
2023-02-22T11:08:18.094Z,130.70
2023-02-22T11:10:44.893Z,134.10
2023-02-22T11:13:32.465Z,132.38
2023-02-22T11:16:05.189Z,129.70
2023-02-22T11:18:33.645Z,130.07
2023-02-22T11:21:02.409Z,130.68
2023-02-22T11:23:29.296Z,128.82
2023-02-22T11:26:01.874Z,129.85
2023-02-22T11:28:52.930Z,133.30
2023-02-22T11:31:31.106Z,127.90
2023-02-22T11:33:59.296Z,133.88
2023-02-22T11:36:31.314Z,131.80
2023-02-22T11:39:00.885Z,132.30
2023-02-22T11:41:37.354Z,133.68
2023-02-22T11:44:15.119Z,133.00
2023-02-22T11:46:42.965Z,132.85
2023-02-22T11:49:11.937Z,131.98
2023-02-22T11:51:39.136Z,130.82
2023-02-22T11:54:29.762Z,132.95
2023-02-22T11:57:07.238Z,133.73
2023-02-22T11:59:41.006Z,130.70
2023-02-22T12:02:19.940Z,132.40
2023-02-22T12:04:53.489Z,135.27
2023-02-22T12:07:24.895Z,134.52
2023-02-22T12:09:55.040Z,131.05
2023-02-22T12:12:54.385Z,131.45
2023-02-22T12:15:40.558Z,129.52
2023-02-22T12:18:11.023Z,127.38
2023-02-22T12:20:47.661Z,133.98
2023-02-22T12:23:30.324Z,132.88
2023-02-22T12:26:08.529Z,130.98
2023-02-22T12:28:38.261Z,136.85
2023-02-22T12:31:10.650Z,133.88
2023-02-22T12:33:45.291Z,132.48
2023-02-22T12:36:14.183Z,132.75
2023-02-22T12:38:44.335Z,134.07
2023-02-22T12:41:30.396Z,134.38
2023-02-22T12:44:18.344Z,130.90
2023-02-22T12:46:50.206Z,130.82
2023-02-22T12:49:36.243Z,131.20
2023-02-22T12:52:20.589Z,128.45
2023-02-22T12:55:11.398Z,131.70
2023-02-22T12:57:47.311Z,126.95
2023-02-22T13:00:20.174Z,131.35
2023-02-22T13:02:54.508Z,134.45
2023-02-22T13:05:21.845Z,129.00
2023-02-22T13:07:59.296Z,130.43
2023-02-22T13:10:30.833Z,128.90
2023-02-22T13:13:15.902Z,130.57
2023-02-22T13:15:45.905Z,129.82
2023-02-22T13:18:28.644Z,130.02
2023-02-22T13:20:56.197Z,131.05
2023-02-22T13:23:29.569Z,130.95
2023-02-22T13:26:08.887Z,131.40
2023-02-22T13:28:58.663Z,126.45
2023-02-22T13:31:31.358Z,126.28
2023-02-22T13:34:16.658Z,128.65
2023-02-22T13:37:02.690Z,130.02
2023-02-22T13:39:54.806Z,126.55
2023-02-22T13:42:34.493Z,126.05
2023-02-22T13:45:04.139Z,124.30
2023-02-22T13:47:52.643Z,119.85
2023-02-22T13:50:41.950Z,122.75
2023-02-22T13:53:19.081Z,124.13
2023-02-22T13:55:54.166Z,115.68
2023-02-22T14:01:07.232Z,115.47
2023-02-22T14:03:42.113Z,114.35
2023-02-22T14:06:27.444Z,119.45
2023-02-22T14:08:54.103Z,114.13
2023-02-22T14:11:21.205Z,115.40
2023-02-22T14:13:55.735Z,111.88
2023-02-22T14:16:25.654Z,112.00
2023-02-22T14:19:13.657Z,114.28
2023-02-22T14:22:03.736Z,112.57
2023-02-22T14:24:42.818Z,114.78
2023-02-22T14:27:10.221Z,116.53
2023-02-22T14:29:37.148Z,117.25
2023-02-22T14:32:06.563Z,118.43
2023-02-22T14:34:36.092Z,117.72
2023-02-22T14:37:12.397Z,118.80
2023-02-22T14:39:39.300Z,117.70
2023-02-22T14:42:08.198Z,117.85
2023-02-22T14:44:40.382Z,113.22
2023-02-22T14:47:16.202Z,113.10
2023-02-22T14:49:45.244Z,117.10
2023-02-22T14:52:38.219Z,111.63
2023-02-22T14:55:24.112Z,113.25
2023-02-22T14:58:00.233Z,111.25
2023-02-22T15:00:31.463Z,120.82
2023-02-22T15:02:59.657Z,119.28
2023-02-22T15:05:34.526Z,113.55
2023-02-22T15:08:02.591Z,118.35
2023-02-22T15:10:44.468Z,118.65
2023-02-22T15:13:16.355Z,118.65
2023-02-22T15:15:47.510Z,116.93
2023-02-22T15:18:22.195Z,118.43
2023-02-22T15:20:56.643Z,117.82
2023-02-22T15:23:25.380Z,122.15
2023-02-22T15:25:52.555Z,115.90
2023-02-22T15:28:19.429Z,116.72
2023-02-22T15:30:46.361Z,117.47
2023-02-22T15:33:24.731Z,114.38
2023-02-22T15:35:55.986Z,118.05
2023-02-22T15:38:28.715Z,111.90
2023-02-22T15:41:00.008Z,119.07
2023-02-22T15:43:32.045Z,117.05
2023-02-22T15:46:02.519Z,114.85
2023-02-22T15:48:31.660Z,114.97
2023-02-22T15:51:10.623Z,114.80
2023-02-22T15:53:37.466Z,112.85
2023-02-22T15:56:06.273Z,112.43
2023-02-22T15:58:33.517Z,115.80
2023-02-22T16:01:05.319Z,116.45
2023-02-22T16:03:38.779Z,110.88
2023-02-22T16:06:09.748Z,112.93
2023-02-22T16:08:54.128Z,111.53
2023-02-22T16:11:29.933Z,111.68
2023-02-22T16:14:01.932Z,114.28
2023-02-22T16:16:35.736Z,112.82
2023-02-22T16:19:17.927Z,115.13
2023-02-22T16:22:00.647Z,112.50
2023-02-22T16:24:28.803Z,112.88
2023-02-22T16:27:10.971Z,114.20
2023-02-22T16:29:37.761Z,114.55
2023-02-22T16:32:04.827Z,115.63
2023-02-22T16:34:31.654Z,118.00
2023-02-22T16:36:58.592Z,117.75
2023-02-22T16:39:27.593Z,114.32
2023-02-22T16:42:18.128Z,115.50
2023-02-22T16:44:47.667Z,115.65
2023-02-22T16:47:14.914Z,115.90
2023-02-22T16:49:42.328Z,117.68
2023-02-22T16:52:09.589Z,118.25
2023-02-22T16:54:46.727Z,115.82
2023-02-22T16:57:21.138Z,115.35
2023-02-22T16:59:50.332Z,114.38
2023-02-22T17:02:17.210Z,115.50
2023-02-22T17:04:49.409Z,115.72
2023-02-22T17:07:21.458Z,113.30
2023-02-22T17:09:48.634Z,115.40
2023-02-22T17:12:15.448Z,117.60
2023-02-22T17:14:48.300Z,115.35
2023-02-22T17:17:32.729Z,109.47
2023-02-22T17:20:01.606Z,109.80
2023-02-22T17:22:28.421Z,113.95
2023-02-22T17:24:55.208Z,113.78
2023-02-22T17:27:21.963Z,111.28
2023-02-22T17:29:49.615Z,110.63
2023-02-22T17:32:16.477Z,113.30
2023-02-22T17:34:43.289Z,112.88
2023-02-22T17:37:10.675Z,116.20
2023-02-22T17:39:37.432Z,118.07
2023-02-22T17:42:04.341Z,115.97
2023-02-22T17:44:37.165Z,113.68
2023-02-22T17:47:04.072Z,117.45
2023-02-22T17:49:30.797Z,117.03
2023-02-22T17:51:57.479Z,114.25
2023-02-22T17:54:25.884Z,112.40
2023-02-22T17:56:52.904Z,116.10
2023-02-22T17:59:19.808Z,117.10
2023-02-22T18:01:46.624Z,112.88
2023-02-22T18:04:13.299Z,114.65
2023-02-22T18:06:40.137Z,116.50
2023-02-22T18:09:10.784Z,117.57
2023-02-22T18:11:39.214Z,113.68
2023-02-22T18:14:10.102Z,114.60
2023-02-22T18:16:39.925Z,115.10
2023-02-22T18:19:06.884Z,117.57
2023-02-22T18:21:33.601Z,121.05
2023-02-22T18:24:00.345Z,121.20
2023-02-22T18:26:27.463Z,123.80
2023-02-22T18:28:54.507Z,118.57
2023-02-22T18:31:22.521Z,117.90
2023-02-22T18:33:50.983Z,117.97
2023-02-22T18:36:23.164Z,118.43
2023-02-22T18:38:51.411Z,116.30
2023-02-22T18:41:19.830Z,115.18
2023-02-22T18:44:11.648Z,120.13
2023-02-22T18:46:44.721Z,120.82
2023-02-22T18:49:13.133Z,117.57
2023-02-22T18:51:43.569Z,118.97
2023-02-22T18:54:11.920Z,119.25
2023-02-22T18:56:42.016Z,116.03
2023-02-22T18:59:14.347Z,117.70
2023-02-22T19:01:41.335Z,119.05
2023-02-22T19:04:11.010Z,119.20
2023-02-22T19:06:38.477Z,118.95
2023-02-22T19:09:08.651Z,117.85
2023-02-22T19:11:50.868Z,117.13
2023-02-22T19:14:19.464Z,121.82
2023-02-22T19:16:48.624Z,121.35
2023-02-22T19:19:20.843Z,119.45
2023-02-22T19:21:48.109Z,118.40
2023-02-22T19:24:18.985Z,119.07
2023-02-22T19:26:52.960Z,121.38
2023-02-22T19:29:23.841Z,120.82
2023-02-22T19:31:54.109Z,123.50
2023-02-22T19:34:26.527Z,126.65
2023-02-22T19:36:53.624Z,125.88
2023-02-22T19:39:20.752Z,128.07
2023-02-22T19:41:47.705Z,129.82
2023-02-22T19:44:17.562Z,127.97
2023-02-22T19:46:45.735Z,125.63
2023-02-22T19:49:16.121Z,122.65
2023-02-22T19:51:44.990Z,122.43
2023-02-22T19:54:13.142Z,124.25
2023-02-22T19:56:40.711Z,128.55
2023-02-22T19:59:13.727Z,121.85
2023-02-22T20:01:41.661Z,116.72
2023-02-22T20:04:09.779Z,116.60
2023-02-22T20:06:41.771Z,116.63
2023-02-22T20:09:12.010Z,120.50
2023-02-22T20:11:45.053Z,120.75
2023-02-22T20:14:17.512Z,120.68
2023-02-22T20:16:45.035Z,119.00
2023-02-22T20:19:13.676Z,118.65
2023-02-22T20:21:41.277Z,118.40
2023-02-22T20:24:09.276Z,114.72
2023-02-22T20:26:37.242Z,113.20
2023-02-22T20:29:05.086Z,114.13
2023-02-22T20:31:32.596Z,114.68
2023-02-22T20:34:00.218Z,113.32
2023-02-22T20:36:28.006Z,112.78
2023-02-22T20:38:55.722Z,114.05
2023-02-22T20:41:27.575Z,114.28
2023-02-22T20:43:57.073Z,112.40
2023-02-22T20:46:25.834Z,112.03
2023-02-22T20:48:57.194Z,113.00
2023-02-22T20:51:26.019Z,113.82
2023-02-22T20:54:00.144Z,115.40
2023-02-22T20:56:28.498Z,116.00
2023-02-22T20:58:56.708Z,118.93
2023-02-22T21:01:23.887Z,119.68
2023-02-22T21:03:51.598Z,118.03
2023-02-22T21:06:21.482Z,117.57
2023-02-22T21:08:53.866Z,121.25
2023-02-22T21:11:22.548Z,116.55
2023-02-22T21:13:50.841Z,118.28
2023-02-22T21:16:19.665Z,119.20
2023-02-22T21:18:46.863Z,117.20
2023-02-22T21:21:16.353Z,119.07
2023-02-22T21:23:49.627Z,120.22
2023-02-22T21:26:19.710Z,118.57
2023-02-22T21:28:54.098Z,122.72
2023-02-22T21:31:31.685Z,119.07
2023-02-22T21:34:00.209Z,118.93
2023-02-22T21:36:27.810Z,118.63
2023-02-22T21:38:55.956Z,119.70
2023-02-22T21:41:24.588Z,118.38
2023-02-22T21:43:52.328Z,119.40
2023-02-22T21:46:19.597Z,120.05
2023-02-22T21:48:48.881Z,119.07
2023-02-22T21:51:20.347Z,118.07
2023-02-22T21:53:48.267Z,118.78
2023-02-22T21:56:16.324Z,122.03
2023-02-22T21:58:43.899Z,126.80
2023-02-22T22:01:17.285Z,129.98
2023-02-22T22:03:45.156Z,127.50
2023-02-22T22:06:13.557Z,128.95
2023-02-22T22:08:42.101Z,125.57
2023-02-22T22:11:09.868Z,124.88
2023-02-22T22:13:38.169Z,122.40
2023-02-22T22:16:08.246Z,127.85
2023-02-22T22:18:36.588Z,122.33
2023-02-22T22:21:10.503Z,122.72
2023-02-22T22:26:16.451Z,121.35
2023-02-22T22:28:47.797Z,122.38
2023-02-22T22:31:15.854Z,122.57
2023-02-22T22:33:44.028Z,122.32
2023-02-22T22:36:14.968Z,122.97
2023-02-22T22:38:43.160Z,122.88
2023-02-22T22:41:13.395Z,121.43
2023-02-22T22:43:41.475Z,122.95
2023-02-22T22:46:08.999Z,122.63
2023-02-22T22:48:39.061Z,125.95
2023-02-22T22:51:09.461Z,122.47
2023-02-22T22:53:40.313Z,124.28
2023-02-22T22:56:14.290Z,123.07
2023-02-22T22:58:42.581Z,123.20
2023-02-22T23:01:18.068Z,121.13
2023-02-22T23:03:48.732Z,121.22
2023-02-22T23:06:16.559Z,120.15
2023-02-22T23:08:43.630Z,123.32
2023-02-22T23:11:10.915Z,122.65
2023-02-22T23:13:39.038Z,125.63
2023-02-22T23:16:15.013Z,122.22
2023-02-22T23:18:43.411Z,121.53
2023-02-22T23:21:10.772Z,123.97
2023-02-22T23:23:38.098Z,122.95
2023-02-22T23:26:18.790Z,120.75
2023-02-22T23:28:47.147Z,122.40
2023-02-22T23:31:15.778Z,121.05
2023-02-22T23:33:43.358Z,124.03
2023-02-22T23:36:12.493Z,124.10
2023-02-22T23:38:41.840Z,121.65
2023-02-22T23:41:10.426Z,126.03
2023-02-22T23:43:40.842Z,124.32
2023-02-22T23:46:13.203Z,123.65
2023-02-22T23:48:43.198Z,124.97
2023-02-22T23:51:11.036Z,124.75
2023-02-22T23:53:38.794Z,127.93
2023-02-22T23:56:10.018Z,131.88
2023-02-22T23:58:38.392Z,137.23
